sensor_id;sensor_type;location;lat;lon;timestamp;temperature;humidity
64209;DHT22;50527;52.414;13.226;2023-11-21T00:00:09;10.00;99.90
64209;DHT22;50527;52.414;13.226;2023-11-21T00:02:38;10.00;99.90
64209;DHT22;50527;52.414;13.226;2023-11-21T00:05:06;9.90;99.90
64209;DHT22;50527;52.414;13.226;2023-11-21T00:07:33;9.90;99.90
64209;DHT22;50527;52.414;13.226;2023-11-21T00:09:59;9.90;99.90
64209;DHT22;50527;52.414;13.226;2023-11-21T00:12:24;9.90;99.90
64209;DHT22;50527;52.414;13.226;2023-11-21T00:14:50;9.90;99.90
64209;DHT22;50527;52.414;13.226;2023-11-21T00:17:15;9.90;99.90
64209;DHT22;50527;52.414;13.226;2023-11-21T00:19:41;9.90;99.90
64209;DHT22;50527;52.414;13.226;2023-11-21T00:22:08;9.90;99.90
64209;DHT22;50527;52.414;13.226;2023-11-21T00:24:34;9.80;99.90
64209;DHT22;50527;52.414;13.226;2023-11-21T00:27:00;9.70;99.90
64209;DHT22;50527;52.414;13.226;2023-11-21T00:29:25;9.70;99.90
64209;DHT22;50527;52.414;13.226;2023-11-21T00:31:52;9.70;99.90
64209;DHT22;50527;52.414;13.226;2023-11-21T00:34:17;9.70;99.90
64209;DHT22;50527;52.414;13.226;2023-11-21T00:36:43;9.50;99.90
64209;DHT22;50527;52.414;13.226;2023-11-21T00:39:08;9.50;99.90
64209;DHT22;50527;52.414;13.226;2023-11-21T00:41:34;9.50;99.90
64209;DHT22;50527;52.414;13.226;2023-11-21T00:44:00;9.40;99.90
64209;DHT22;50527;52.414;13.226;2023-11-21T00:46:26;9.40;99.90
64209;DHT22;50527;52.414;13.226;2023-11-21T00:48:55;9.40;99.90
64209;DHT22;50527;52.414;13.226;2023-11-21T00:51:21;9.40;99.90
64209;DHT22;50527;52.414;13.226;2023-11-21T00:53:47;9.20;99.90
64209;DHT22;50527;52.414;13.226;2023-11-21T00:56:13;9.20;99.90
64209;DHT22;50527;52.414;13.226;2023-11-21T00:58:39;9.10;99.90
64209;DHT22;50527;52.414;13.226;2023-11-21T01:01:07;9.00;99.90
64209;DHT22;50527;52.414;13.226;2023-11-21T01:03:33;9.00;99.90
64209;DHT22;50527;52.414;13.226;2023-11-21T01:05:58;8.90;99.90
64209;DHT22;50527;52.414;13.226;2023-11-21T01:08:24;8.90;99.90
64209;DHT22;50527;52.414;13.226;2023-11-21T01:10:49;8.90;99.90
64209;DHT22;50527;52.414;13.226;2023-11-21T01:13:15;8.90;99.90
64209;DHT22;50527;52.414;13.226;2023-11-21T01:15:41;8.80;99.90
64209;DHT22;50527;52.414;13.226;2023-11-21T01:18:07;8.70;99.90
64209;DHT22;50527;52.414;13.226;2023-11-21T01:20:34;8.70;99.90
64209;DHT22;50527;52.414;13.226;2023-11-21T01:22:59;8.60;99.90
64209;DHT22;50527;52.414;13.226;2023-11-21T01:25:25;8.60;99.90
64209;DHT22;50527;52.414;13.226;2023-11-21T01:27:51;8.40;99.90
64209;DHT22;50527;52.414;13.226;2023-11-21T01:30:17;8.40;99.90
64209;DHT22;50527;52.414;13.226;2023-11-21T01:32:42;8.40;99.90
64209;DHT22;50527;52.414;13.226;2023-11-21T01:35:09;8.40;99.90
64209;DHT22;50527;52.414;13.226;2023-11-21T01:37:36;8.40;99.90
64209;DHT22;50527;52.414;13.226;2023-11-21T01:40:01;8.30;99.90
64209;DHT22;50527;52.414;13.226;2023-11-21T01:42:30;8.30;99.90
64209;DHT22;50527;52.414;13.226;2023-11-21T01:44:55;8.30;99.90
64209;DHT22;50527;52.414;13.226;2023-11-21T01:47:21;8.30;99.90
64209;DHT22;50527;52.414;13.226;2023-11-21T01:49:47;8.30;99.90
64209;DHT22;50527;52.414;13.226;2023-11-21T01:52:13;8.40;99.90
64209;DHT22;50527;52.414;13.226;2023-11-21T01:54:39;8.40;99.90
64209;DHT22;50527;52.414;13.226;2023-11-21T01:57:05;8.40;99.90
64209;DHT22;50527;52.414;13.226;2023-11-21T01:59:38;8.40;99.90
64209;DHT22;50527;52.414;13.226;2023-11-21T02:02:07;8.20;99.90
64209;DHT22;50527;52.414;13.226;2023-11-21T02:04:33;8.30;99.90
64209;DHT22;50527;52.414;13.226;2023-11-21T02:06:59;8.30;99.90
64209;DHT22;50527;52.414;13.226;2023-11-21T02:09:26;8.20;99.90
64209;DHT22;50527;52.414;13.226;2023-11-21T02:11:53;8.20;99.90
64209;DHT22;50527;52.414;13.226;2023-11-21T02:14:19;8.10;99.90
64209;DHT22;50527;52.414;13.226;2023-11-21T02:16:48;8.00;99.90
64209;DHT22;50527;52.414;13.226;2023-11-21T02:19:18;8.10;99.90
64209;DHT22;50527;52.414;13.226;2023-11-21T02:21:49;7.90;99.90
64209;DHT22;50527;52.414;13.226;2023-11-21T02:24:15;7.90;99.90
64209;DHT22;50527;52.414;13.226;2023-11-21T02:26:42;7.90;99.90
64209;DHT22;50527;52.414;13.226;2023-11-21T02:29:08;8.00;99.90
64209;DHT22;50527;52.414;13.226;2023-11-21T02:31:37;7.90;99.90
64209;DHT22;50527;52.414;13.226;2023-11-21T02:34:11;8.00;99.90
64209;DHT22;50527;52.414;13.226;2023-11-21T02:36:38;7.90;99.90
64209;DHT22;50527;52.414;13.226;2023-11-21T02:39:04;7.90;99.90
64209;DHT22;50527;52.414;13.226;2023-11-21T02:41:29;8.00;99.90
64209;DHT22;50527;52.414;13.226;2023-11-21T02:43:55;8.00;99.90
64209;DHT22;50527;52.414;13.226;2023-11-21T02:46:20;7.90;99.90
64209;DHT22;50527;52.414;13.226;2023-11-21T02:48:46;7.90;99.90
64209;DHT22;50527;52.414;13.226;2023-11-21T02:51:11;7.90;99.90
64209;DHT22;50527;52.414;13.226;2023-11-21T02:53:40;7.90;99.90
64209;DHT22;50527;52.414;13.226;2023-11-21T02:56:05;7.90;99.90
64209;DHT22;50527;52.414;13.226;2023-11-21T02:58:31;7.90;99.90
64209;DHT22;50527;52.414;13.226;2023-11-21T03:00:56;7.90;99.90
64209;DHT22;50527;52.414;13.226;2023-11-21T03:03:22;7.80;99.90
64209;DHT22;50527;52.414;13.226;2023-11-21T03:05:49;7.90;99.90
64209;DHT22;50527;52.414;13.226;2023-11-21T03:08:15;7.90;99.90
64209;DHT22;50527;52.414;13.226;2023-11-21T03:10:40;7.90;99.90
64209;DHT22;50527;52.414;13.226;2023-11-21T03:13:06;8.00;99.90
64209;DHT22;50527;52.414;13.226;2023-11-21T03:15:31;7.90;99.90
64209;DHT22;50527;52.414;13.226;2023-11-21T03:17:58;7.90;99.90
64209;DHT22;50527;52.414;13.226;2023-11-21T03:23:45;7.90;99.90
64209;DHT22;50527;52.414;13.226;2023-11-21T03:26:14;7.90;99.90
64209;DHT22;50527;52.414;13.226;2023-11-21T03:28:39;7.90;99.90
64209;DHT22;50527;52.414;13.226;2023-11-21T03:31:05;7.80;99.90
64209;DHT22;50527;52.414;13.226;2023-11-21T03:33:32;7.90;99.90
64209;DHT22;50527;52.414;13.226;2023-11-21T03:35:57;7.90;99.90
64209;DHT22;50527;52.414;13.226;2023-11-21T03:38:23;7.90;99.90
64209;DHT22;50527;52.414;13.226;2023-11-21T03:40:48;7.90;99.90
64209;DHT22;50527;52.414;13.226;2023-11-21T03:43:14;7.80;99.90
64209;DHT22;50527;52.414;13.226;2023-11-21T03:45:40;7.90;99.90
64209;DHT22;50527;52.414;13.226;2023-11-21T03:48:06;7.90;99.90
64209;DHT22;50527;52.414;13.226;2023-11-21T03:50:32;7.90;99.90
64209;DHT22;50527;52.414;13.226;2023-11-21T03:52:57;7.80;99.90
64209;DHT22;50527;52.414;13.226;2023-11-21T03:55:23;7.70;99.90
64209;DHT22;50527;52.414;13.226;2023-11-21T03:57:50;7.70;99.90
64209;DHT22;50527;52.414;13.226;2023-11-21T04:00:17;7.70;99.90
64209;DHT22;50527;52.414;13.226;2023-11-21T04:02:42;7.60;99.90
64209;DHT22;50527;52.414;13.226;2023-11-21T04:05:08;7.60;99.90
64209;DHT22;50527;52.414;13.226;2023-11-21T04:07:34;7.50;99.90
64209;DHT22;50527;52.414;13.226;2023-11-21T04:10:00;7.50;99.90
64209;DHT22;50527;52.414;13.226;2023-11-21T04:12:25;7.50;99.90
64209;DHT22;50527;52.414;13.226;2023-11-21T04:14:51;7.50;99.90
64209;DHT22;50527;52.414;13.226;2023-11-21T04:17:19;7.50;99.90
64209;DHT22;50527;52.414;13.226;2023-11-21T04:19:45;7.40;99.90
64209;DHT22;50527;52.414;13.226;2023-11-21T04:22:11;7.50;99.90
64209;DHT22;50527;52.414;13.226;2023-11-21T04:24:37;7.40;99.90
64209;DHT22;50527;52.414;13.226;2023-11-21T04:27:02;7.40;99.90
64209;DHT22;50527;52.414;13.226;2023-11-21T04:29:28;7.30;99.90
64209;DHT22;50527;52.414;13.226;2023-11-21T04:31:53;7.40;99.90
64209;DHT22;50527;52.414;13.226;2023-11-21T04:34:19;7.40;99.90
64209;DHT22;50527;52.414;13.226;2023-11-21T04:36:44;7.30;99.90
64209;DHT22;50527;52.414;13.226;2023-11-21T04:39:10;7.30;99.90
64209;DHT22;50527;52.414;13.226;2023-11-21T04:41:36;7.30;99.90
64209;DHT22;50527;52.414;13.226;2023-11-21T04:44:07;7.30;99.90
64209;DHT22;50527;52.414;13.226;2023-11-21T04:46:32;7.30;99.90
64209;DHT22;50527;52.414;13.226;2023-11-21T04:48:58;7.20;99.90
64209;DHT22;50527;52.414;13.226;2023-11-21T04:51:24;7.20;99.90
64209;DHT22;50527;52.414;13.226;2023-11-21T04:53:49;7.20;99.90
64209;DHT22;50527;52.414;13.226;2023-11-21T04:56:15;7.20;99.90
64209;DHT22;50527;52.414;13.226;2023-11-21T04:58:41;7.20;99.90
64209;DHT22;50527;52.414;13.226;2023-11-21T05:01:10;7.20;99.90
64209;DHT22;50527;52.414;13.226;2023-11-21T05:03:35;7.10;99.90
64209;DHT22;50527;52.414;13.226;2023-11-21T05:06:01;7.10;99.90
64209;DHT22;50527;52.414;13.226;2023-11-21T05:08:26;7.10;99.90
64209;DHT22;50527;52.414;13.226;2023-11-21T05:10:52;7.10;99.90
64209;DHT22;50527;52.414;13.226;2023-11-21T05:13:19;7.10;99.90
64209;DHT22;50527;52.414;13.226;2023-11-21T05:15:45;7.10;99.90
64209;DHT22;50527;52.414;13.226;2023-11-21T05:18:11;7.20;99.90
64209;DHT22;50527;52.414;13.226;2023-11-21T05:20:36;7.00;99.90
64209;DHT22;50527;52.414;13.226;2023-11-21T05:23:03;7.00;99.90
64209;DHT22;50527;52.414;13.226;2023-11-21T05:25:28;7.00;99.90
64209;DHT22;50527;52.414;13.226;2023-11-21T05:27:54;6.90;99.90
64209;DHT22;50527;52.414;13.226;2023-11-21T05:30:22;6.90;99.90
64209;DHT22;50527;52.414;13.226;2023-11-21T05:32:47;6.90;99.90
64209;DHT22;50527;52.414;13.226;2023-11-21T05:35:15;6.90;99.90
64209;DHT22;50527;52.414;13.226;2023-11-21T05:37:44;6.70;99.90
64209;DHT22;50527;52.414;13.226;2023-11-21T05:40:10;6.70;99.90
64209;DHT22;50527;52.414;13.226;2023-11-21T05:42:36;6.70;99.90
64209;DHT22;50527;52.414;13.226;2023-11-21T05:45:04;6.70;99.90
64209;DHT22;50527;52.414;13.226;2023-11-21T05:47:37;6.80;99.90
64209;DHT22;50527;52.414;13.226;2023-11-21T05:50:04;6.80;99.90
64209;DHT22;50527;52.414;13.226;2023-11-21T05:52:31;6.80;99.90
64209;DHT22;50527;52.414;13.226;2023-11-21T05:54:57;6.80;99.90
64209;DHT22;50527;52.414;13.226;2023-11-21T05:57:23;6.80;99.90
64209;DHT22;50527;52.414;13.226;2023-11-21T05:59:48;6.60;99.90
64209;DHT22;50527;52.414;13.226;2023-11-21T06:02:14;6.70;99.90
64209;DHT22;50527;52.414;13.226;2023-11-21T06:04:40;6.70;99.90
64209;DHT22;50527;52.414;13.226;2023-11-21T06:07:05;6.80;99.90
64209;DHT22;50527;52.414;13.226;2023-11-21T06:09:30;6.70;99.90
64209;DHT22;50527;52.414;13.226;2023-11-21T06:11:56;6.80;99.90
64209;DHT22;50527;52.414;13.226;2023-11-21T06:14:21;6.80;99.90
64209;DHT22;50527;52.414;13.226;2023-11-21T06:16:47;6.80;99.90
64209;DHT22;50527;52.414;13.226;2023-11-21T06:19:12;6.80;99.90
64209;DHT22;50527;52.414;13.226;2023-11-21T06:21:38;6.90;99.90
64209;DHT22;50527;52.414;13.226;2023-11-21T06:24:04;6.80;99.90
64209;DHT22;50527;52.414;13.226;2023-11-21T06:26:29;6.70;99.90
64209;DHT22;50527;52.414;13.226;2023-11-21T06:28:57;6.60;99.90
64209;DHT22;50527;52.414;13.226;2023-11-21T06:31:22;6.50;99.90
64209;DHT22;50527;52.414;13.226;2023-11-21T06:33:48;6.40;99.90
64209;DHT22;50527;52.414;13.226;2023-11-21T06:36:13;6.40;99.90
64209;DHT22;50527;52.414;13.226;2023-11-21T06:38:39;6.40;99.90
64209;DHT22;50527;52.414;13.226;2023-11-21T06:41:05;6.30;99.90
64209;DHT22;50527;52.414;13.226;2023-11-21T06:43:31;6.30;99.90
64209;DHT22;50527;52.414;13.226;2023-11-21T06:45:57;6.30;99.80
64209;DHT22;50527;52.414;13.226;2023-11-21T06:48:22;6.30;99.90
64209;DHT22;50527;52.414;13.226;2023-11-21T06:50:47;6.30;99.90
64209;DHT22;50527;52.414;13.226;2023-11-21T06:53:13;6.30;99.90
64209;DHT22;50527;52.414;13.226;2023-11-21T06:55:39;6.30;99.90
64209;DHT22;50527;52.414;13.226;2023-11-21T06:58:04;6.40;99.90
64209;DHT22;50527;52.414;13.226;2023-11-21T07:00:30;6.40;99.90
64209;DHT22;50527;52.414;13.226;2023-11-21T07:02:56;6.40;99.90
64209;DHT22;50527;52.414;13.226;2023-11-21T07:05:22;6.50;99.90
64209;DHT22;50527;52.414;13.226;2023-11-21T07:07:48;6.50;99.90
64209;DHT22;50527;52.414;13.226;2023-11-21T07:10:14;6.50;99.90
64209;DHT22;50527;52.414;13.226;2023-11-21T07:12:40;6.50;99.60
64209;DHT22;50527;52.414;13.226;2023-11-21T07:15:06;6.40;98.80
64209;DHT22;50527;52.414;13.226;2023-11-21T07:17:35;6.40;99.10
64209;DHT22;50527;52.414;13.226;2023-11-21T07:20:01;6.40;99.90
64209;DHT22;50527;52.414;13.226;2023-11-21T07:22:26;6.50;99.90
64209;DHT22;50527;52.414;13.226;2023-11-21T07:24:52;6.50;99.90
64209;DHT22;50527;52.414;13.226;2023-11-21T07:27:17;6.50;99.90
64209;DHT22;50527;52.414;13.226;2023-11-21T07:29:43;6.50;99.10
64209;DHT22;50527;52.414;13.226;2023-11-21T07:32:09;6.50;97.80
64209;DHT22;50527;52.414;13.226;2023-11-21T07:34:35;6.50;98.20
64209;DHT22;50527;52.414;13.226;2023-11-21T07:37:01;6.40;98.60
64209;DHT22;50527;52.414;13.226;2023-11-21T07:39:27;6.40;98.40
64209;DHT22;50527;52.414;13.226;2023-11-21T07:41:52;6.40;99.50
64209;DHT22;50527;52.414;13.226;2023-11-21T07:44:18;6.40;99.70
64209;DHT22;50527;52.414;13.226;2023-11-21T07:46:45;6.50;99.90
64209;DHT22;50527;52.414;13.226;2023-11-21T07:49:10;6.50;99.80
64209;DHT22;50527;52.414;13.226;2023-11-21T07:51:36;6.50;98.60
64209;DHT22;50527;52.414;13.226;2023-11-21T07:54:01;6.60;98.80
64209;DHT22;50527;52.414;13.226;2023-11-21T07:56:27;6.50;98.70
64209;DHT22;50527;52.414;13.226;2023-11-21T07:58:52;6.50;98.00
64209;DHT22;50527;52.414;13.226;2023-11-21T08:01:18;6.50;97.10
64209;DHT22;50527;52.414;13.226;2023-11-21T08:03:43;6.50;98.90
64209;DHT22;50527;52.414;13.226;2023-11-21T08:06:09;6.60;99.40
64209;DHT22;50527;52.414;13.226;2023-11-21T08:08:35;6.50;97.90
64209;DHT22;50527;52.414;13.226;2023-11-21T08:11:01;6.50;99.20
64209;DHT22;50527;52.414;13.226;2023-11-21T08:13:28;6.60;97.40
64209;DHT22;50527;52.414;13.226;2023-11-21T08:15:54;6.50;98.40
64209;DHT22;50527;52.414;13.226;2023-11-21T08:18:21;6.50;98.40
64209;DHT22;50527;52.414;13.226;2023-11-21T08:20:46;6.50;98.80
64209;DHT22;50527;52.414;13.226;2023-11-21T08:23:15;6.50;98.90
64209;DHT22;50527;52.414;13.226;2023-11-21T08:25:44;6.60;99.00
64209;DHT22;50527;52.414;13.226;2023-11-21T08:28:10;6.50;98.20
64209;DHT22;50527;52.414;13.226;2023-11-21T08:30:36;6.40;99.60
64209;DHT22;50527;52.414;13.226;2023-11-21T08:33:01;6.50;99.90
64209;DHT22;50527;52.414;13.226;2023-11-21T08:35:28;6.50;97.90
64209;DHT22;50527;52.414;13.226;2023-11-21T08:37:54;6.50;99.60
64209;DHT22;50527;52.414;13.226;2023-11-21T08:40:20;6.50;99.60
64209;DHT22;50527;52.414;13.226;2023-11-21T08:42:46;6.60;98.60
64209;DHT22;50527;52.414;13.226;2023-11-21T08:45:12;6.70;97.00
64209;DHT22;50527;52.414;13.226;2023-11-21T08:47:38;6.60;96.00
64209;DHT22;50527;52.414;13.226;2023-11-21T08:50:05;6.50;96.70
64209;DHT22;50527;52.414;13.226;2023-11-21T08:52:33;6.50;97.30
64209;DHT22;50527;52.414;13.226;2023-11-21T08:54:59;6.50;97.10
64209;DHT22;50527;52.414;13.226;2023-11-21T08:57:28;6.40;97.70
64209;DHT22;50527;52.414;13.226;2023-11-21T08:59:53;6.40;98.30
64209;DHT22;50527;52.414;13.226;2023-11-21T09:02:21;6.50;98.80
64209;DHT22;50527;52.414;13.226;2023-11-21T09:04:48;6.50;98.10
64209;DHT22;50527;52.414;13.226;2023-11-21T09:07:14;6.40;98.30
64209;DHT22;50527;52.414;13.226;2023-11-21T09:09:39;6.50;97.90
64209;DHT22;50527;52.414;13.226;2023-11-21T09:12:05;6.50;97.50
64209;DHT22;50527;52.414;13.226;2023-11-21T09:14:31;6.50;97.90
64209;DHT22;50527;52.414;13.226;2023-11-21T09:16:56;6.40;97.80
64209;DHT22;50527;52.414;13.226;2023-11-21T09:19:22;6.50;97.50
64209;DHT22;50527;52.414;13.226;2023-11-21T09:21:47;6.50;97.60
64209;DHT22;50527;52.414;13.226;2023-11-21T09:24:13;6.40;97.90
64209;DHT22;50527;52.414;13.226;2023-11-21T09:26:38;6.50;98.40
64209;DHT22;50527;52.414;13.226;2023-11-21T09:29:04;6.40;98.70
64209;DHT22;50527;52.414;13.226;2023-11-21T09:31:29;6.50;99.20
64209;DHT22;50527;52.414;13.226;2023-11-21T09:33:56;6.50;98.00
64209;DHT22;50527;52.414;13.226;2023-11-21T09:36:22;6.50;97.30
64209;DHT22;50527;52.414;13.226;2023-11-21T09:38:52;6.50;97.30
64209;DHT22;50527;52.414;13.226;2023-11-21T09:41:32;6.40;97.20
64209;DHT22;50527;52.414;13.226;2023-11-21T09:44:02;6.40;96.80
64209;DHT22;50527;52.414;13.226;2023-11-21T09:46:30;6.30;96.70
64209;DHT22;50527;52.414;13.226;2023-11-21T09:48:59;6.40;97.90
64209;DHT22;50527;52.414;13.226;2023-11-21T09:51:27;6.30;97.70
64209;DHT22;50527;52.414;13.226;2023-11-21T09:53:57;6.30;98.10
64209;DHT22;50527;52.414;13.226;2023-11-21T09:56:24;6.40;98.60
64209;DHT22;50527;52.414;13.226;2023-11-21T09:58:53;6.40;97.80
64209;DHT22;50527;52.414;13.226;2023-11-21T10:01:19;6.40;96.70
64209;DHT22;50527;52.414;13.226;2023-11-21T10:03:46;6.40;96.50
64209;DHT22;50527;52.414;13.226;2023-11-21T10:06:13;6.40;97.00
64209;DHT22;50527;52.414;13.226;2023-11-21T10:08:40;6.40;97.40
64209;DHT22;50527;52.414;13.226;2023-11-21T10:11:07;6.50;98.70
64209;DHT22;50527;52.414;13.226;2023-11-21T10:13:34;6.50;98.40
64209;DHT22;50527;52.414;13.226;2023-11-21T10:16:00;6.50;97.90
64209;DHT22;50527;52.414;13.226;2023-11-21T10:18:31;6.60;97.90
64209;DHT22;50527;52.414;13.226;2023-11-21T10:20:59;6.50;97.40
64209;DHT22;50527;52.414;13.226;2023-11-21T10:23:25;6.60;98.40
64209;DHT22;50527;52.414;13.226;2023-11-21T10:25:51;6.60;96.60
64209;DHT22;50527;52.414;13.226;2023-11-21T10:28:17;6.60;96.70
64209;DHT22;50527;52.414;13.226;2023-11-21T10:30:43;6.60;95.50
64209;DHT22;50527;52.414;13.226;2023-11-21T10:33:09;6.50;96.50
64209;DHT22;50527;52.414;13.226;2023-11-21T10:35:46;6.40;96.70
64209;DHT22;50527;52.414;13.226;2023-11-21T10:38:16;6.40;96.00
64209;DHT22;50527;52.414;13.226;2023-11-21T10:40:42;6.50;96.80
64209;DHT22;50527;52.414;13.226;2023-11-21T10:43:10;6.40;96.10
64209;DHT22;50527;52.414;13.226;2023-11-21T10:45:37;6.50;95.80
64209;DHT22;50527;52.414;13.226;2023-11-21T10:48:14;6.60;96.10
64209;DHT22;50527;52.414;13.226;2023-11-21T10:50:40;6.60;96.10
64209;DHT22;50527;52.414;13.226;2023-11-21T10:53:06;6.60;96.60
64209;DHT22;50527;52.414;13.226;2023-11-21T10:55:33;6.60;95.60
64209;DHT22;50527;52.414;13.226;2023-11-21T10:58:01;6.50;95.40
64209;DHT22;50527;52.414;13.226;2023-11-21T11:00:28;6.50;95.20
64209;DHT22;50527;52.414;13.226;2023-11-21T11:02:54;6.50;96.50
64209;DHT22;50527;52.414;13.226;2023-11-21T11:05:22;6.50;96.00
64209;DHT22;50527;52.414;13.226;2023-11-21T11:07:51;6.50;96.70
64209;DHT22;50527;52.414;13.226;2023-11-21T11:10:25;6.60;96.90
64209;DHT22;50527;52.414;13.226;2023-11-21T11:12:53;6.60;97.20
64209;DHT22;50527;52.414;13.226;2023-11-21T11:15:19;6.60;96.20
64209;DHT22;50527;52.414;13.226;2023-11-21T11:17:46;6.70;96.80
64209;DHT22;50527;52.414;13.226;2023-11-21T11:20:14;6.60;96.40
64209;DHT22;50527;52.414;13.226;2023-11-21T11:25:58;6.60;95.40
64209;DHT22;50527;52.414;13.226;2023-11-21T11:28:35;6.50;96.50
64209;DHT22;50527;52.414;13.226;2023-11-21T11:37:20;6.30;98.10
64209;DHT22;50527;52.414;13.226;2023-11-21T11:39:49;6.30;98.40
64209;DHT22;50527;52.414;13.226;2023-11-21T11:42:17;6.30;97.40
64209;DHT22;50527;52.414;13.226;2023-11-21T11:47:22;6.10;98.30
64209;DHT22;50527;52.414;13.226;2023-11-21T11:50:00;6.10;99.60
64209;DHT22;50527;52.414;13.226;2023-11-21T11:52:49;6.00;99.20
64209;DHT22;50527;52.414;13.226;2023-11-21T11:55:23;6.00;99.90
64209;DHT22;50527;52.414;13.226;2023-11-21T11:57:51;6.00;99.90
64209;DHT22;50527;52.414;13.226;2023-11-21T12:00:20;6.00;99.90
64209;DHT22;50527;52.414;13.226;2023-11-21T12:02:54;6.00;99.90
64209;DHT22;50527;52.414;13.226;2023-11-21T12:05:22;6.00;99.90
64209;DHT22;50527;52.414;13.226;2023-11-21T12:07:51;6.00;99.90
64209;DHT22;50527;52.414;13.226;2023-11-21T12:10:39;6.00;99.90
64209;DHT22;50527;52.414;13.226;2023-11-21T12:13:06;5.90;99.90
64209;DHT22;50527;52.414;13.226;2023-11-21T12:15:37;5.80;99.90
64209;DHT22;50527;52.414;13.226;2023-11-21T12:18:04;5.80;99.90
64209;DHT22;50527;52.414;13.226;2023-11-21T12:20:30;5.80;99.90
64209;DHT22;50527;52.414;13.226;2023-11-21T12:22:58;5.80;99.90
64209;DHT22;50527;52.414;13.226;2023-11-21T12:25:31;5.80;99.90
64209;DHT22;50527;52.414;13.226;2023-11-21T12:28:02;5.70;99.90
64209;DHT22;50527;52.414;13.226;2023-11-21T12:30:33;5.70;99.90
64209;DHT22;50527;52.414;13.226;2023-11-21T12:33:01;5.80;99.90
64209;DHT22;50527;52.414;13.226;2023-11-21T12:35:29;5.80;99.90
64209;DHT22;50527;52.414;13.226;2023-11-21T12:37:55;5.80;99.90
64209;DHT22;50527;52.414;13.226;2023-11-21T12:40:25;5.80;99.90
64209;DHT22;50527;52.414;13.226;2023-11-21T12:42:58;5.80;99.90
64209;DHT22;50527;52.414;13.226;2023-11-21T12:45:24;5.80;99.90
64209;DHT22;50527;52.414;13.226;2023-11-21T12:48:01;5.70;99.90
64209;DHT22;50527;52.414;13.226;2023-11-21T12:50:30;5.80;99.90
64209;DHT22;50527;52.414;13.226;2023-11-21T12:53:01;5.80;99.90
64209;DHT22;50527;52.414;13.226;2023-11-21T12:55:33;5.90;99.90
64209;DHT22;50527;52.414;13.226;2023-11-21T12:58:02;5.90;99.90
64209;DHT22;50527;52.414;13.226;2023-11-21T13:00:44;5.80;99.90
64209;DHT22;50527;52.414;13.226;2023-11-21T13:03:12;5.80;99.90
64209;DHT22;50527;52.414;13.226;2023-11-21T13:05:41;5.70;99.90
64209;DHT22;50527;52.414;13.226;2023-11-21T13:08:10;5.60;99.90
64209;DHT22;50527;52.414;13.226;2023-11-21T13:10:44;5.70;99.90
64209;DHT22;50527;52.414;13.226;2023-11-21T13:13:13;5.70;99.90
64209;DHT22;50527;52.414;13.226;2023-11-21T13:15:54;5.70;99.90
64209;DHT22;50527;52.414;13.226;2023-11-21T13:18:26;5.90;99.90
64209;DHT22;50527;52.414;13.226;2023-11-21T13:20:56;5.90;99.90
64209;DHT22;50527;52.414;13.226;2023-11-21T13:23:23;5.90;99.20
64209;DHT22;50527;52.414;13.226;2023-11-21T13:25:48;6.00;99.60
64209;DHT22;50527;52.414;13.226;2023-11-21T13:28:15;5.90;99.00
64209;DHT22;50527;52.414;13.226;2023-11-21T13:30:48;5.90;99.30
64209;DHT22;50527;52.414;13.226;2023-11-21T13:33:14;6.00;99.90
64209;DHT22;50527;52.414;13.226;2023-11-21T13:35:43;5.90;99.90
64209;DHT22;50527;52.414;13.226;2023-11-21T13:38:15;5.90;99.90
64209;DHT22;50527;52.414;13.226;2023-11-21T13:40:54;6.00;99.60
64209;DHT22;50527;52.414;13.226;2023-11-21T13:43:21;5.80;98.30
64209;DHT22;50527;52.414;13.226;2023-11-21T13:45:49;5.80;99.10
64209;DHT22;50527;52.414;13.226;2023-11-21T13:48:27;5.70;99.20
64209;DHT22;50527;52.414;13.226;2023-11-21T13:51:07;5.70;99.20
64209;DHT22;50527;52.414;13.226;2023-11-21T13:53:44;5.60;99.50
64209;DHT22;50527;52.414;13.226;2023-11-21T13:56:11;5.50;99.90
64209;DHT22;50527;52.414;13.226;2023-11-21T13:58:36;5.50;99.90
64209;DHT22;50527;52.414;13.226;2023-11-21T14:01:12;5.50;99.90
64209;DHT22;50527;52.414;13.226;2023-11-21T14:04:02;5.40;99.90
64209;DHT22;50527;52.414;13.226;2023-11-21T14:06:47;5.30;99.90
64209;DHT22;50527;52.414;13.226;2023-11-21T14:09:20;5.40;99.90
64209;DHT22;50527;52.414;13.226;2023-11-21T14:11:56;5.40;99.90
64209;DHT22;50527;52.414;13.226;2023-11-21T14:14:25;5.20;99.90
64209;DHT22;50527;52.414;13.226;2023-11-21T14:16:51;5.30;99.90
64209;DHT22;50527;52.414;13.226;2023-11-21T14:19:18;5.20;99.90
64209;DHT22;50527;52.414;13.226;2023-11-21T14:21:47;5.10;99.90
64209;DHT22;50527;52.414;13.226;2023-11-21T14:24:14;5.20;99.90
64209;DHT22;50527;52.414;13.226;2023-11-21T14:26:43;5.10;99.90
64209;DHT22;50527;52.414;13.226;2023-11-21T14:29:10;5.10;99.90
64209;DHT22;50527;52.414;13.226;2023-11-21T14:31:42;5.10;99.90
64209;DHT22;50527;52.414;13.226;2023-11-21T14:34:08;5.10;99.70
64209;DHT22;50527;52.414;13.226;2023-11-21T14:36:35;5.00;99.90
64209;DHT22;50527;52.414;13.226;2023-11-21T14:39:02;5.00;99.90
64209;DHT22;50527;52.414;13.226;2023-11-21T14:41:29;5.00;99.70
64209;DHT22;50527;52.414;13.226;2023-11-21T14:43:55;4.90;99.00
64209;DHT22;50527;52.414;13.226;2023-11-21T14:46:22;4.90;99.90
64209;DHT22;50527;52.414;13.226;2023-11-21T14:48:48;4.80;99.90
64209;DHT22;50527;52.414;13.226;2023-11-21T14:51:30;4.80;99.90
64209;DHT22;50527;52.414;13.226;2023-11-21T14:53:59;4.80;99.50
64209;DHT22;50527;52.414;13.226;2023-11-21T14:56:31;4.80;99.40
64209;DHT22;50527;52.414;13.226;2023-11-21T14:59:00;4.80;99.80
64209;DHT22;50527;52.414;13.226;2023-11-21T15:01:31;4.80;99.90
64209;DHT22;50527;52.414;13.226;2023-11-21T15:04:16;4.80;99.90
64209;DHT22;50527;52.414;13.226;2023-11-21T15:06:53;4.90;99.80
64209;DHT22;50527;52.414;13.226;2023-11-21T15:09:21;4.70;97.90
64209;DHT22;50527;52.414;13.226;2023-11-21T15:11:58;4.70;98.90
64209;DHT22;50527;52.414;13.226;2023-11-21T15:14:35;4.70;98.30
64209;DHT22;50527;52.414;13.226;2023-11-21T15:17:02;4.70;97.70
64209;DHT22;50527;52.414;13.226;2023-11-21T15:19:28;4.70;97.40
64209;DHT22;50527;52.414;13.226;2023-11-21T15:21:57;4.60;97.40
64209;DHT22;50527;52.414;13.226;2023-11-21T15:24:23;4.70;97.20
64209;DHT22;50527;52.414;13.226;2023-11-21T15:26:49;4.70;97.70
64209;DHT22;50527;52.414;13.226;2023-11-21T15:29:15;4.70;98.00
64209;DHT22;50527;52.414;13.226;2023-11-21T15:31:41;4.50;97.40
64209;DHT22;50527;52.414;13.226;2023-11-21T15:34:11;4.50;98.10
64209;DHT22;50527;52.414;13.226;2023-11-21T15:36:36;4.50;98.50
64209;DHT22;50527;52.414;13.226;2023-11-21T15:39:02;4.60;97.90
64209;DHT22;50527;52.414;13.226;2023-11-21T15:41:28;4.50;98.40
64209;DHT22;50527;52.414;13.226;2023-11-21T15:43:53;4.60;98.70
64209;DHT22;50527;52.414;13.226;2023-11-21T15:46:19;4.60;96.90